createdAt,value
2022-09-27T00:00:42.998Z,68379.94
2022-09-27T00:03:11.865Z,68379.75
2022-09-27T00:05:39.510Z,68377.66
2022-09-27T00:08:06.911Z,68377.66
2022-09-27T00:10:34.276Z,68365.75
2022-09-27T00:13:01.484Z,68369.72
2022-09-27T00:15:28.769Z,68378.44
2022-09-27T00:17:56.103Z,68379.94
2022-09-27T00:20:23.442Z,68379.19
2022-09-27T00:22:50.640Z,68373.91
2022-09-27T00:25:18.355Z,68389.19
2022-09-27T00:27:45.591Z,68393.53
2022-09-27T00:30:14.073Z,68402.44
2022-09-27T00:32:41.338Z,68407.53
2022-09-27T00:35:08.798Z,68406.03
2022-09-27T00:37:36.229Z,68401.47
2022-09-27T00:40:03.762Z,68371.41
2022-09-27T00:42:31.570Z,68403.00
2022-09-27T00:45:02.643Z,68407.16
2022-09-27T00:47:39.702Z,68415.28
2022-09-27T00:50:15.130Z,68405.63
2022-09-27T00:52:49.424Z,68413.59
2022-09-27T00:55:20.842Z,68411.13
2022-09-27T00:57:49.302Z,68414.16
2022-09-27T01:00:17.193Z,68409.44
2022-09-27T01:02:49.742Z,68419.63
2022-09-27T01:05:20.879Z,68419.81
2022-09-27T01:07:48.215Z,68419.44
2022-09-27T01:10:17.106Z,68423.41
2022-09-27T01:13:08.621Z,68416.22
2022-09-27T01:15:38.870Z,68414.72
2022-09-27T01:18:18.458Z,68421.13
2022-09-27T01:21:14.122Z,68426.25
2022-09-27T01:24:00.379Z,68424.53
2022-09-27T01:27:01.658Z,68420.00
2022-09-27T01:29:53.802Z,68408.84
2022-09-27T01:32:31.966Z,68403.75
2022-09-27T01:35:30.721Z,68398.66
2022-09-27T01:38:13.229Z,68391.28
2022-09-27T01:40:52.833Z,68379.38
2022-09-27T01:44:00.830Z,68360.47
2022-09-27T01:46:42.073Z,68365.38
2022-09-27T01:49:22.639Z,68367.66
2022-09-27T01:51:57.424Z,68354.41
2022-09-27T01:54:34.022Z,68355.94
2022-09-27T01:57:35.304Z,68357.63
2022-09-27T02:00:07.978Z,68354.25
2022-09-27T02:03:07.225Z,68344.78
2022-09-27T02:05:43.006Z,68353.09
2022-09-27T02:08:58.683Z,68338.56
2022-09-27T02:11:56.123Z,68352.72
2022-09-27T02:14:33.850Z,68347.97
2022-09-27T02:17:20.781Z,68348.75
2022-09-27T02:20:01.201Z,68340.63
2022-09-27T02:22:42.336Z,68347.97
2022-09-27T02:25:21.105Z,68363.50
2022-09-27T02:28:10.490Z,68363.13
2022-09-27T02:30:42.117Z,68371.22
2022-09-27T02:33:43.901Z,68364.63
2022-09-27T02:36:11.619Z,68366.53
2022-09-27T02:38:39.007Z,68371.81
2022-09-27T02:41:18.823Z,68365.75
2022-09-27T02:43:57.215Z,68366.69
2022-09-27T02:46:57.286Z,68363.50
2022-09-27T02:50:00.043Z,68359.91
2022-09-27T02:53:11.426Z,68359.53
2022-09-27T02:55:53.791Z,68361.59
2022-09-27T02:59:02.968Z,68360.66
2022-09-27T03:02:13.980Z,68357.25
2022-09-27T03:05:28.113Z,68350.44
2022-09-27T03:07:55.548Z,68356.31
2022-09-27T03:10:28.893Z,68352.72
2022-09-27T03:12:58.690Z,68347.81
2022-09-27T03:15:26.022Z,68347.03
2022-09-27T03:18:19.174Z,68335.16
2022-09-27T03:21:04.829Z,68326.44
2022-09-27T03:23:32.510Z,68316.63
2022-09-27T03:25:59.771Z,68306.41
2022-09-27T03:28:29.726Z,68298.09
2022-09-27T03:30:57.318Z,68287.31
2022-09-27T03:33:49.066Z,68272.41
2022-09-27T03:36:16.253Z,68276.38
2022-09-27T03:38:43.900Z,68274.28
2022-09-27T03:41:15.579Z,68265.41
2022-09-27T03:43:42.953Z,68266.75
2022-09-27T03:46:10.500Z,68259.19
2022-09-27T03:48:38.481Z,68253.72
2022-09-27T03:51:05.897Z,68253.16
2022-09-27T03:53:33.098Z,68244.84
2022-09-27T03:56:00.881Z,68246.16
2022-09-27T03:58:28.188Z,68253.91
2022-09-27T04:00:55.448Z,68250.13
2022-09-27T04:03:23.387Z,68237.09
2022-09-27T04:06:20.225Z,68235.41
2022-09-27T04:08:47.712Z,68232.38
2022-09-27T04:11:15.394Z,68236.72
2022-09-27T04:13:47.485Z,68242.38
2022-09-27T04:16:16.842Z,68228.97
2022-09-27T04:18:55.370Z,68220.13
2022-09-27T04:21:41.172Z,68223.13
2022-09-27T04:24:11.986Z,68217.84
2022-09-27T04:26:43.383Z,68218.97
2022-09-27T04:29:14.423Z,68212.75
2022-09-27T04:31:48.590Z,68215.75
2022-09-27T04:34:16.141Z,68212.53
2022-09-27T04:36:43.591Z,68210.66
2022-09-27T04:39:16.738Z,68207.63
2022-09-27T04:41:45.496Z,68214.63
2022-09-27T04:44:13.517Z,68213.31
2022-09-27T04:46:47.327Z,68227.44
2022-09-27T04:49:17.608Z,68216.72
2022-09-27T04:51:45.262Z,68220.28
2022-09-27T04:54:12.466Z,68210.66
2022-09-27T04:56:48.906Z,68213.50
2022-09-27T04:59:16.749Z,68187.84
2022-09-27T05:01:45.316Z,68222.16
2022-09-27T05:04:31.959Z,68226.13
2022-09-27T05:07:00.206Z,68221.22
2022-09-27T05:09:35.902Z,68225.19
2022-09-27T05:12:03.552Z,68225.56
2022-09-27T05:14:33.479Z,68231.41
2022-09-27T05:17:12.741Z,68234.25
2022-09-27T05:19:57.592Z,68236.72
2022-09-27T05:22:33.234Z,68233.13
2022-09-27T05:25:00.404Z,68235.22
2022-09-27T05:27:28.139Z,68235.97
2022-09-27T05:29:56.844Z,68234.09
2022-09-27T05:32:33.144Z,68234.25
2022-09-27T05:35:23.147Z,68235.59
2022-09-27T05:37:55.296Z,68235.41
2022-09-27T05:40:40.287Z,68232.56
2022-09-27T05:43:08.628Z,68237.66
2022-09-27T05:45:35.930Z,68243.13
2022-09-27T05:48:05.862Z,68243.34
2022-09-27T05:50:37.516Z,68251.06
2022-09-27T05:53:05.291Z,68251.25
2022-09-27T05:55:32.796Z,68255.03
2022-09-27T05:58:01.907Z,68245.78
2022-09-27T06:00:39.794Z,68243.13
2022-09-27T06:03:26.920Z,68256.16
2022-09-27T06:06:26.446Z,68250.88
2022-09-27T06:08:57.602Z,68266.56
2022-09-27T06:11:27.602Z,68269.38
2022-09-27T06:13:54.992Z,68272.22
2022-09-27T06:16:23.155Z,68270.72
2022-09-27T06:18:50.444Z,68282.41
2022-09-27T06:21:18.104Z,68290.91
2022-09-27T06:23:54.300Z,68299.44
2022-09-27T06:26:28.849Z,68298.09
2022-09-27T06:29:15.124Z,68301.13
2022-09-27T06:31:49.112Z,68312.25
2022-09-27T06:34:33.405Z,68321.34
2022-09-27T06:37:00.703Z,68317.94
2022-09-27T06:39:29.309Z,68304.34
2022-09-27T06:42:18.713Z,68314.53
2022-09-27T06:44:58.380Z,68320.56
2022-09-27T06:47:44.268Z,68312.44
2022-09-27T06:50:40.417Z,68314.16
2022-09-27T06:53:10.753Z,68313.59
2022-09-27T06:55:39.089Z,68316.22
2022-09-27T06:58:25.906Z,68318.50
2022-09-27T07:01:12.039Z,68313.03
2022-09-27T07:03:58.889Z,68311.88
2022-09-27T07:06:42.827Z,68318.13
2022-09-27T07:09:21.314Z,68328.34
2022-09-27T07:11:48.574Z,68328.69
2022-09-27T07:14:17.479Z,68320.56
2022-09-27T07:16:45.687Z,68323.78
2022-09-27T07:19:14.468Z,68332.31
2022-09-27T07:21:42.369Z,68322.09
2022-09-27T07:24:09.708Z,68321.72
2022-09-27T07:26:36.944Z,68343.47
2022-09-27T07:29:07.312Z,68347.81
2022-09-27T07:31:34.752Z,68355.75
2022-09-27T07:34:01.894Z,68359.53
2022-09-27T07:36:30.164Z,68365.19
2022-09-27T07:39:01.519Z,68392.59
2022-09-27T07:41:32.048Z,68385.81
2022-09-27T07:43:59.739Z,68399.41
2022-09-27T07:46:27.915Z,68411.69
2022-09-27T07:48:58.782Z,68420.75
2022-09-27T07:51:49.164Z,68422.28
2022-09-27T07:54:34.645Z,68426.06
2022-09-27T07:57:17.152Z,68428.13
2022-09-27T07:59:48.823Z,68422.66
2022-09-27T08:02:19.286Z,68432.47
2022-09-27T08:04:48.491Z,68430.22
2022-09-27T08:07:16.095Z,68430.41
2022-09-27T08:09:46.144Z,68443.28
2022-09-27T08:12:13.793Z,68431.38
2022-09-27T08:14:45.034Z,68434.00
2022-09-27T08:17:17.513Z,68433.25
2022-09-27T08:20:06.572Z,68435.69
2022-09-27T08:22:56.829Z,68429.84
2022-09-27T08:25:38.514Z,68430.41
2022-09-27T08:28:17.795Z,68436.66
2022-09-27T08:30:54.522Z,68442.13
2022-09-27T08:33:22.226Z,68445.16
2022-09-27T08:35:49.501Z,68454.97
2022-09-27T08:38:16.897Z,68453.09
2022-09-27T08:40:53.387Z,68465.78
2022-09-27T08:43:40.074Z,68470.28
2022-09-27T08:46:42.804Z,68479.56
2022-09-27T08:49:21.244Z,68480.16
2022-09-27T08:51:52.574Z,68490.72
2022-09-27T08:54:25.034Z,68499.22
2022-09-27T08:56:54.968Z,68500.19
2022-09-27T08:59:29.559Z,68499.06
2022-09-27T09:01:57.119Z,68508.91
2022-09-27T09:04:40.262Z,68513.47
2022-09-27T09:07:26.371Z,68526.50
2022-09-27T09:10:13.144Z,68516.66
2022-09-27T09:13:01.921Z,68497.75
2022-09-27T09:16:15.985Z,68420.00
2022-09-27T09:19:07.908Z,68403.75
2022-09-27T09:22:06.910Z,68415.66
2022-09-27T09:24:37.178Z,68483.91
2022-09-27T09:27:13.404Z,68547.31
2022-09-27T09:30:26.292Z,68584.03
2022-09-27T09:33:16.664Z,68592.94
2022-09-27T09:36:06.439Z,68542.41
2022-09-27T09:38:40.420Z,68540.69
2022-09-27T09:41:15.748Z,68499.06
2022-09-27T09:43:50.843Z,68471.81
2022-09-27T09:46:44.763Z,68507.03
2022-09-27T09:49:34.078Z,68498.47
2022-09-27T09:52:09.069Z,68542.22
2022-09-27T09:55:06.551Z,68545.06
2022-09-27T09:57:46.648Z,68544.47
2022-09-27T10:00:21.727Z,68558.84
2022-09-27T10:02:55.634Z,68569.09
2022-09-27T10:05:24.861Z,68591.41
2022-09-27T10:08:13.046Z,68647.47
2022-09-27T10:10:40.426Z,68719.47
2022-09-27T10:13:26.180Z,68706.75
2022-09-27T10:16:10.301Z,68670.41
2022-09-27T10:18:39.877Z,68621.13
2022-09-27T10:21:13.816Z,68600.13
2022-09-27T10:24:06.190Z,68566.63
2022-09-27T10:27:01.393Z,68544.88
2022-09-27T10:29:37.619Z,68538.63
2022-09-27T10:32:22.896Z,68511.56
2022-09-27T10:34:51.521Z,68462.38
2022-09-27T10:37:23.207Z,68376.72
2022-09-27T10:40:26.182Z,68328.91
2022-09-27T10:42:54.405Z,68301.69
2022-09-27T10:45:34.468Z,68288.84
2022-09-27T10:48:23.446Z,68283.75
2022-09-27T10:51:01.761Z,68280.53
2022-09-27T10:53:46.854Z,68269.22
2022-09-27T10:56:28.624Z,68271.66
2022-09-27T10:58:58.138Z,68282.81
2022-09-27T11:01:38.198Z,68306.78
2022-09-27T11:04:32.436Z,68340.63
2022-09-27T11:07:15.376Z,68346.66
2022-09-27T11:10:03.069Z,68354.81
2022-09-27T11:12:41.118Z,68372.00
2022-09-27T11:15:19.254Z,68389.94
2022-09-27T11:18:03.263Z,68377.47
2022-09-27T11:20:49.775Z,68374.25
2022-09-27T11:23:21.264Z,68349.88
2022-09-27T11:26:14.730Z,68332.88
2022-09-27T11:29:13.139Z,68324.38
2022-09-27T11:32:42.527Z,68323.78
2022-09-27T11:35:35.056Z,68321.53
2022-09-27T11:38:40.777Z,68336.09
2022-09-27T11:41:19.336Z,68323.78
2022-09-27T11:44:02.911Z,68316.44
2022-09-27T11:46:41.541Z,68318.88
2022-09-27T11:49:36.316Z,68313.03
2022-09-27T11:52:27.737Z,68313.03
2022-09-27T11:55:24.620Z,68303.19
2022-09-27T11:58:30.454Z,68291.13
2022-09-27T12:01:43.090Z,68302.81
2022-09-27T12:04:22.347Z,68330.06
2022-09-27T12:07:12.274Z,68361.78
2022-09-27T12:09:48.102Z,68390.91
2022-09-27T12:12:23.836Z,68371.59
2022-09-27T12:15:06.686Z,68383.53
2022-09-27T12:17:48.470Z,68398.47
2022-09-27T12:20:31.137Z,68401.84
2022-09-27T12:23:20.318Z,68391.47
2022-09-27T12:26:06.440Z,68397.50
2022-09-27T12:28:47.217Z,68401.84
2022-09-27T12:31:30.509Z,68396.38
2022-09-27T12:34:33.074Z,68383.91
2022-09-27T12:37:18.744Z,68387.69
2022-09-27T12:40:31.342Z,68407.91
2022-09-27T12:43:04.956Z,68451.59
2022-09-27T12:46:19.702Z,68450.81
2022-09-27T12:49:00.791Z,68508.53
2022-09-27T12:51:37.070Z,68517.81
2022-09-27T12:54:23.070Z,68558.69
2022-09-27T12:57:04.335Z,68527.09
2022-09-27T12:59:58.642Z,68523.84
2022-09-27T13:03:11.236Z,68557.72
2022-09-27T13:06:11.988Z,68570.59
2022-09-27T13:08:48.765Z,68553.00
2022-09-27T13:11:45.647Z,68522.53
2022-09-27T13:14:24.034Z,68492.44
2022-09-27T13:16:51.859Z,68489.78
2022-09-27T13:19:39.947Z,68477.28
2022-09-27T13:22:37.512Z,68500.56
2022-09-27T13:25:55.577Z,68499.44
2022-09-27T13:28:48.560Z,68450.28
2022-09-27T13:31:54.556Z,68449.13
2022-09-27T13:34:47.966Z,68415.09
2022-09-27T13:37:40.094Z,68382.38
2022-09-27T13:40:24.279Z,68417.00
2022-09-27T13:43:21.912Z,68456.13
2022-09-27T13:46:05.891Z,68422.47
2022-09-27T13:48:47.892Z,68447.41
2022-09-27T13:51:31.579Z,68497.19
2022-09-27T13:54:26.232Z,68539.75
2022-09-27T13:56:56.336Z,68529.72
2022-09-27T13:59:43.502Z,68472.38
2022-09-27T14:02:59.352Z,68479.00
2022-09-27T14:05:34.215Z,68473.88
2022-09-27T14:08:03.435Z,68476.56
2022-09-27T14:10:32.863Z,68484.88
2022-09-27T14:13:06.037Z,68465.00
2022-09-27T14:15:40.197Z,68436.06
2022-09-27T14:18:12.076Z,68430.41
2022-09-27T14:20:43.312Z,68431.38
2022-09-27T14:23:25.582Z,68432.09
2022-09-27T14:25:55.175Z,68453.28
2022-09-27T14:28:26.872Z,68447.63
2022-09-27T14:31:23.202Z,68401.84
2022-09-27T14:34:14.021Z,68358.94
2022-09-27T14:37:08.092Z,68341.75
2022-09-27T14:40:06.843Z,68343.06
2022-09-27T14:42:36.942Z,68346.09
2022-09-27T14:45:20.928Z,68359.16
2022-09-27T14:47:49.935Z,68373.50
2022-09-27T14:50:24.845Z,68344.22
2022-09-27T14:52:56.229Z,68341.56
2022-09-27T14:55:26.309Z,68351.59
2022-09-27T14:58:04.744Z,68353.66
2022-09-27T15:00:35.404Z,68353.09
2022-09-27T15:03:05.934Z,68343.28
2022-09-27T15:05:35.070Z,68335.34
2022-09-27T15:08:05.952Z,68339.88
2022-09-27T15:10:38.392Z,68360.66
2022-09-27T15:13:06.961Z,68349.50
2022-09-27T15:15:38.224Z,68348.94
2022-09-27T15:18:45.278Z,68338.56
2022-09-27T15:21:15.480Z,68336.47
2022-09-27T15:23:45.041Z,68333.81
2022-09-27T15:26:35.897Z,68338.16
2022-09-27T15:29:03.609Z,68331.94
2022-09-27T15:31:36.326Z,68309.44
2022-09-27T15:34:07.278Z,68302.63
2022-09-27T15:36:51.626Z,68288.47
2022-09-27T15:39:32.488Z,68276.75
2022-09-27T15:42:15.774Z,68270.91
2022-09-27T15:44:43.059Z,68263.34
2022-09-27T15:47:32.157Z,68255.78
2022-09-27T15:50:19.812Z,68254.66
2022-09-27T15:52:50.155Z,68268.44
2022-09-27T15:55:25.644Z,68260.91
2022-09-27T15:58:07.738Z,68264.84
2022-09-27T16:00:38.450Z,68269.38
2022-09-27T16:03:05.678Z,68259.00
2022-09-27T16:05:33.314Z,68251.81
2022-09-27T16:08:00.728Z,68254.66
2022-09-27T16:10:38.410Z,68262.97
2022-09-27T16:13:05.789Z,68262.41
2022-09-27T16:15:33.298Z,68264.09
2022-09-27T16:18:00.817Z,68258.63
2022-09-27T16:20:28.679Z,68261.84
2022-09-27T16:22:56.855Z,68252.03
2022-09-27T16:25:24.818Z,68276.00
2022-09-27T16:27:54.849Z,68260.34
2022-09-27T16:30:21.940Z,68269.22
2022-09-27T16:32:49.763Z,68254.09
2022-09-27T16:35:18.699Z,68255.03
2022-09-27T16:37:46.650Z,68254.28
2022-09-27T16:40:15.380Z,68244.28
2022-09-27T16:42:43.307Z,68220.13
2022-09-27T16:45:14.553Z,68210.28
2022-09-27T16:47:44.445Z,68183.47
2022-09-27T16:50:34.490Z,68157.81
2022-09-27T16:53:01.927Z,68147.63
2022-09-27T16:55:29.461Z,68130.25
2022-09-27T16:57:59.845Z,68124.78
2022-09-27T17:00:27.734Z,68121.41
2022-09-27T17:02:55.227Z,68124.97
2022-09-27T17:05:23.225Z,68130.25
2022-09-27T17:07:52.161Z,68137.25
2022-09-27T17:10:23.534Z,68142.34
2022-09-27T17:12:51.144Z,68143.84
2022-09-27T17:15:19.061Z,68150.66
2022-09-27T17:17:50.783Z,68145.75
2022-09-27T17:20:18.139Z,68154.44
2022-09-27T17:22:45.431Z,68142.91
2022-09-27T17:25:12.782Z,68134.97
2022-09-27T17:27:39.940Z,68123.66
2022-09-27T17:30:07.895Z,68132.72
2022-09-27T17:32:35.064Z,68128.56
2022-09-27T17:35:02.757Z,68123.66
2022-09-27T17:37:30.058Z,68118.75
2022-09-27T17:39:58.288Z,68139.16
2022-09-27T17:42:25.790Z,68146.88
2022-09-27T17:44:53.157Z,68130.25
2022-09-27T17:47:39.187Z,68136.13
2022-09-27T17:50:25.364Z,68122.72
2022-09-27T17:52:53.635Z,68146.69
2022-09-27T17:55:21.797Z,68154.03
2022-09-27T17:57:50.462Z,68155.00
2022-09-27T18:00:18.741Z,68148.00
2022-09-27T18:02:46.302Z,68142.91
2022-09-27T18:05:13.827Z,68143.47
2022-09-27T18:07:41.075Z,68139.69
2022-09-27T18:10:08.877Z,68135.56
2022-09-27T18:12:36.199Z,68131.00
2022-09-27T18:15:04.161Z,68134.03
2022-09-27T18:17:33.941Z,68130.47
2022-09-27T18:20:12.127Z,68147.44
2022-09-27T18:22:43.022Z,68150.47
2022-09-27T18:25:12.062Z,68166.50
2022-09-27T18:27:41.255Z,68161.59
2022-09-27T18:30:09.636Z,68153.28
2022-09-27T18:32:36.947Z,68152.72
2022-09-27T18:35:52.437Z,68150.47
2022-09-27T18:39:28.469Z,68164.78
2022-09-27T18:42:11.779Z,68137.44
2022-09-27T18:44:38.959Z,68126.69
2022-09-27T18:47:06.308Z,68141.41
2022-09-27T18:49:34.507Z,68149.88
2022-09-27T18:52:03.658Z,68133.28
2022-09-27T18:54:31.816Z,68118.19
2022-09-27T18:56:59.228Z,68109.50
2022-09-27T18:59:26.552Z,68104.03
2022-09-27T19:01:53.842Z,68108.72
2022-09-27T19:04:24.991Z,68091.56
2022-09-27T19:06:54.718Z,68082.34
2022-09-27T19:09:23.515Z,68071.22
2022-09-27T19:11:51.944Z,68067.06
2022-09-27T19:14:24.512Z,68071.94
2022-09-27T19:16:54.739Z,68072.91
2022-09-27T19:19:22.602Z,68073.66
2022-09-27T19:21:54.134Z,68069.31
2022-09-27T19:24:22.322Z,68063.50
2022-09-27T19:26:53.795Z,68072.34
2022-09-27T19:29:21.785Z,68071.94
2022-09-27T19:31:48.902Z,68058.19
2022-09-27T19:34:18.184Z,68066.50
2022-09-27T19:36:45.530Z,68058.75
2022-09-27T19:39:13.255Z,68059.13
2022-09-27T19:41:40.875Z,68059.91
2022-09-27T19:44:08.213Z,68059.91
2022-09-27T19:46:35.806Z,68058.38
2022-09-27T19:49:03.300Z,68060.47
2022-09-27T19:51:31.627Z,68055.00
2022-09-27T19:53:59.010Z,68057.44
2022-09-27T19:56:26.262Z,68056.31
2022-09-27T19:58:54.934Z,68030.09
2022-09-27T20:01:25.418Z,68010.88
2022-09-27T20:03:56.260Z,68000.88
2022-09-27T20:06:24.737Z,67994.09
2022-09-27T20:08:52.748Z,67998.63
2022-09-27T20:11:34.901Z,68012.75
2022-09-27T20:14:02.076Z,68004.63
2022-09-27T20:16:29.406Z,68001.66
2022-09-27T20:18:59.540Z,67998.03
2022-09-27T20:21:33.170Z,68005.78
2022-09-27T20:24:02.298Z,68008.25
2022-09-27T20:26:31.259Z,68005.22
2022-09-27T20:29:00.694Z,68013.53
2022-09-27T20:31:33.872Z,68023.88
2022-09-27T20:34:01.786Z,68031.44
2022-09-27T20:36:38.663Z,68046.13
2022-09-27T20:39:11.183Z,68035.19
2022-09-27T20:41:41.088Z,68033.13
2022-09-27T20:44:11.276Z,68048.97
2022-09-27T20:46:40.545Z,68046.88
2022-09-27T20:49:14.650Z,68061.00
2022-09-27T20:51:43.907Z,68048.97
2022-09-27T20:54:14.370Z,68051.78
2022-09-27T20:56:44.255Z,68052.34
2022-09-27T20:59:20.413Z,68041.22
2022-09-27T21:01:49.815Z,68051.00
2022-09-27T21:04:18.973Z,68056.31
2022-09-27T21:06:46.563Z,68043.84
2022-09-27T21:09:18.742Z,68034.44
2022-09-27T21:11:51.734Z,68034.25
2022-09-27T21:14:19.864Z,68050.84
2022-09-27T21:16:47.400Z,68040.84
2022-09-27T21:19:14.655Z,68053.47
2022-09-27T21:21:42.240Z,68037.28
2022-09-27T21:24:09.382Z,68051.22
2022-09-27T21:26:37.015Z,68030.84
2022-09-27T21:29:10.631Z,68021.22
2022-09-27T21:31:38.636Z,68006.72
2022-09-27T21:34:06.191Z,67999.03
2022-09-27T21:36:36.622Z,67998.81
2022-09-27T21:39:05.855Z,68008.44
2022-09-27T21:41:32.903Z,68008.03
2022-09-27T21:44:04.081Z,67985.63
2022-09-27T21:46:31.757Z,68000.50
2022-09-27T21:49:01.892Z,67989.38
2022-09-27T21:51:36.370Z,67989.94
2022-09-27T21:54:06.268Z,67981.28
2022-09-27T21:56:37.399Z,67992.38
2022-09-27T21:59:06.134Z,67994.66
2022-09-27T22:01:34.750Z,67999.00
2022-09-27T22:04:04.752Z,68000.88
2022-09-27T22:06:34.510Z,68001.66
2022-09-27T22:09:03.947Z,67999.75
2022-09-27T22:11:33.839Z,67999.19
2022-09-27T22:14:01.078Z,67999.94
2022-09-27T22:16:30.351Z,67999.19
2022-09-27T22:18:58.621Z,68002.22
2022-09-27T22:21:32.283Z,68014.47
2022-09-27T22:24:06.719Z,68014.84
2022-09-27T22:26:37.533Z,68013.69
2022-09-27T22:29:05.441Z,68012.00
2022-09-27T22:31:33.041Z,68011.63
2022-09-27T22:34:02.394Z,68030.28
2022-09-27T22:36:30.496Z,68031.06
2022-09-27T22:38:58.070Z,68026.69
2022-09-27T22:41:25.798Z,68033.69
2022-09-27T22:43:53.670Z,68031.22
2022-09-27T22:46:21.192Z,68036.72
2022-09-27T22:48:49.697Z,68042.94
2022-09-27T22:51:17.727Z,68037.44
2022-09-27T22:53:44.783Z,68038.97
2022-09-27T22:56:19.798Z,68034.25
2022-09-27T22:58:48.373Z,68036.72
2022-09-27T23:01:24.187Z,68027.09
2022-09-27T23:03:53.554Z,68032.16
2022-09-27T23:06:24.285Z,68024.25
2022-09-27T23:08:53.630Z,68017.84
2022-09-27T23:11:22.482Z,68034.81
2022-09-27T23:13:51.089Z,68031.06
2022-09-27T23:16:21.296Z,68045.19
2022-09-27T23:18:51.589Z,68036.50
2022-09-27T23:21:18.879Z,68015.41
2022-09-27T23:23:46.516Z,68026.34
2022-09-27T23:26:16.001Z,68022.38
2022-09-27T23:28:43.725Z,68021.63
2022-09-27T23:31:13.816Z,68032.75
2022-09-27T23:33:43.758Z,68042.94
2022-09-27T23:36:15.114Z,68029.53
2022-09-27T23:38:43.479Z,68030.66
2022-09-27T23:41:10.765Z,68039.34
2022-09-27T23:43:38.977Z,68017.47
2022-09-27T23:46:08.063Z,68045.56
2022-09-27T23:48:36.209Z,68032.16
2022-09-27T23:51:04.859Z,68031.81
2022-09-27T23:53:32.050Z,68035.56
2022-09-27T23:56:03.054Z,68043.31
2022-09-27T23:58:38.436Z,68032.34
